Time;durP1;ratioP1;P1;durP2;ratioP2;P2;SDS_P1;SDS_P2;PMS_P1;PMS_P2;Temp;Humidity;BMP_temperature;BMP_pressure;BME280_temperature;BME280_humidity;BME280_pressure;Samples;Min_cycle;Max_cycle;Signal;HPM_P1;HPM_P2
2023/03/20 00:00:20;;;;;;;32.05;18.45;;;;;;;6.72;67.39;95378.09;5020249;28;20227;-72
2023/03/20 00:02:47;;;;;;;34.50;18.80;;;;;;;6.68;67.62;95373.94;5018188;28;20612;-72
2023/03/20 00:05:21;;;;;;;30.50;17.27;;;;;;;6.71;67.59;95375.56;5026171;28;20286;-72
2023/03/20 00:07:49;;;;;;;34.35;17.13;;;;;;;6.71;68.01;95381.47;5030669;28;20204;-72
2023/03/20 00:10:17;;;;;;;38.58;17.50;;;;;;;6.67;67.86;95379.03;5029693;28;20644;-72
2023/03/20 00:12:47;;;;;;;35.17;19.27;;;;;;;6.61;68.37;95371.53;5030020;28;20227;-73
2023/03/20 00:15:27;;;;;;;48.63;25.30;;;;;;;6.60;68.50;95375.75;5029113;28;20203;-71
2023/03/20 00:17:55;;;;;;;29.00;17.65;;;;;;;6.54;68.51;95363.19;5030548;28;20638;-72
2023/03/20 00:20:22;;;;;;;33.15;18.60;;;;;;;6.57;68.31;95358.09;5030230;28;20631;-72
2023/03/20 00:22:49;;;;;;;30.63;17.20;;;;;;;6.55;67.55;95366.53;5029774;28;20203;-73
2023/03/20 00:25:17;;;;;;;31.17;16.45;;;;;;;6.54;68.39;95363.19;5030418;28;20200;-72
2023/03/20 00:27:45;;;;;;;26.88;15.60;;;;;;;6.58;67.92;95359.78;5029868;28;20224;-72
2023/03/20 00:30:27;;;;;;;31.10;17.15;;;;;;;6.51;67.43;95363.22;5032594;28;20314;-72
2023/03/20 00:32:55;;;;;;;26.95;15.65;;;;;;;6.48;67.77;95353.16;5029555;28;20582;-72
2023/03/20 00:35:24;;;;;;;25.83;14.98;;;;;;;6.53;67.84;95353.09;5029329;28;20207;-72
2023/03/20 00:37:52;;;;;;;34.00;16.25;;;;;;;6.54;67.95;95353.09;5029337;28;20200;-73
2023/03/20 00:40:20;;;;;;;23.52;14.13;;;;;;;6.51;67.75;95358.16;5029363;28;20199;-73
2023/03/20 00:42:51;;;;;;;24.77;14.75;;;;;;;6.42;68.10;95360.84;5031923;28;20204;-73
2023/03/20 00:45:21;;;;;;;29.67;15.32;;;;;;;6.36;67.80;95355.84;5029854;28;20291;-73
2023/03/20 00:47:50;;;;;;;24.35;14.82;;;;;;;6.44;68.09;95351.53;5030019;28;20250;-73
2023/03/20 00:50:20;;;;;;;30.75;15.18;;;;;;;6.44;68.03;95349.00;5029173;28;20254;-72
2023/03/20 00:52:48;;;;;;;22.85;14.02;;;;;;;6.43;67.93;95358.25;5029445;28;20283;-74
2023/03/20 00:55:15;;;;;;;24.08;14.02;;;;;;;6.36;67.81;95358.38;5029931;28;20292;-73
2023/03/20 00:57:48;;;;;;;27.33;15.05;;;;;;;6.32;68.32;95354.22;5029653;28;20203;-73
2023/03/20 01:00:36;;;;;;;25.20;14.70;;;;;;;6.25;67.92;95352.63;5028441;28;20294;-72
2023/03/20 01:03:12;;;;;;;31.40;16.55;;;;;;;6.22;68.77;95340.88;5024431;28;20231;-73
2023/03/20 01:05:39;;;;;;;28.40;16.45;;;;;;;6.22;68.51;95332.47;5029194;28;20689;-73
2023/03/20 01:08:12;;;;;;;24.70;14.77;;;;;;;6.16;68.00;95337.59;5028359;28;20318;-73
2023/03/20 01:10:39;;;;;;;25.52;15.43;;;;;;;6.19;68.33;95337.56;5027404;28;20325;-72
2023/03/20 01:13:15;;;;;;;24.13;15.52;;;;;;;6.22;68.15;95337.50;5029668;28;20199;-72
2023/03/20 01:15:42;;;;;;;28.15;15.48;;;;;;;6.32;68.65;95334.03;5028840;28;20210;-73
2023/03/20 01:18:12;;;;;;;31.75;15.85;;;;;;;6.33;68.39;95330.66;5029604;28;20204;-73
2023/03/20 01:20:39;;;;;;;33.45;16.63;;;;;;;6.35;68.44;95331.47;5029367;28;20211;-73
2023/03/20 01:23:06;;;;;;;24.58;15.27;;;;;;;6.26;69.11;95329.88;5028647;28;20215;-73
2023/03/20 01:25:33;;;;;;;25.10;14.82;;;;;;;6.19;69.09;95330.00;5029631;28;20196;-73
2023/03/20 01:27:59;;;;;;;30.17;17.02;;;;;;;6.23;68.31;95332.44;5029054;28;20257;-73
2023/03/20 01:30:28;;;;;;;25.00;15.07;;;;;;;6.32;67.85;95323.94;5028593;28;20285;-73
2023/03/20 01:32:56;;;;;;;30.65;15.27;;;;;;;6.22;68.01;95333.28;5029852;28;20208;-73
2023/03/20 01:35:26;;;;;;;26.92;16.15;;;;;;;6.03;68.81;95331.84;5028742;28;20228;-73
2023/03/20 01:37:55;;;;;;;27.75;16.85;;;;;;;6.01;69.05;95336.91;5029807;28;20199;-74
2023/03/20 01:40:33;;;;;;;29.88;18.13;;;;;;;5.95;69.10;95339.50;5028437;28;20299;-73
2023/03/20 01:43:02;;;;;;;33.47;19.58;;;;;;;6.01;68.56;95333.56;5028953;28;20286;-73
2023/03/20 01:45:32;;;;;;;36.58;19.95;;;;;;;6.02;69.30;95333.53;5041428;28;20224;-73
2023/03/20 01:47:59;;;;;;;36.22;17.75;;;;;;;5.99;68.68;95336.09;5029094;28;20641;-73
2023/03/20 01:50:31;;;;;;;36.83;18.80;;;;;;;6.02;68.98;95335.22;5029166;28;20224;-73
2023/03/20 01:53:05;;;;;;;32.45;18.42;;;;;;;5.95;69.01;95331.94;5028751;28;20207;-73
2023/03/20 01:55:33;;;;;;;31.95;18.80;;;;;;;6.00;69.79;95339.47;5028708;28;20665;-73
2023/03/20 01:58:04;;;;;;;35.97;18.75;;;;;;;6.03;69.12;95340.25;5029249;28;20337;-72
2023/03/20 02:00:31;;;;;;;37.30;20.33;;;;;;;5.87;69.06;95333.69;5028974;28;20290;-73
2023/03/20 02:02:58;;;;;;;39.17;19.02;;;;;;;5.80;69.53;95342.19;5033039;28;20705;-73
2023/03/20 02:05:26;;;;;;;33.22;20.33;;;;;;;5.85;69.93;95332.03;5032705;28;20277;-73
2023/03/20 02:08:06;;;;;;;34.28;18.88;;;;;;;5.84;69.85;95336.25;5033331;28;20211;-73
2023/03/20 02:10:32;;;;;;;33.60;19.25;;;;;;;5.84;70.04;95336.25;5025151;28;20235;-73
2023/03/20 02:13:01;;;;;;;39.20;20.83;;;;;;;5.91;70.24;95332.84;5032651;28;20211;-73
2023/03/20 02:15:30;;;;;;;42.70;19.05;;;;;;;5.88;70.57;95329.50;5033089;28;20262;-73
2023/03/20 02:17:57;;;;;;;36.42;20.48;;;;;;;5.79;70.10;95337.97;5032285;28;20204;-73
2023/03/20 02:20:45;;;;;;;31.33;18.42;;;;;;;5.85;69.82;95337.09;5032522;28;21022;-74
2023/03/20 02:23:35;;;;;;;30.65;17.67;;;;;;;5.81;70.16;95334.59;5032517;28;20231;-73
2023/03/20 02:26:21;;;;;;;24.80;16.83;;;;;;;5.85;70.07;95337.09;5032109;28;20301;-73
2023/03/20 02:29:19;;;;;;;33.75;18.73;;;;;;;5.81;69.98;95338.81;5023716;28;20196;-73
2023/03/20 02:32:10;;;;;;;29.70;18.02;;;;;;;5.79;70.26;95337.97;5021350;28;20257;-74
2023/03/20 02:35:13;;;;;;;32.63;17.50;;;;;;;5.78;69.54;95342.19;5030965;28;20673;-74
2023/03/20 02:38:04;;;;;;;31.92;17.00;;;;;;;5.75;70.26;95338.84;5032637;28;20227;-74
2023/03/20 02:40:40;;;;;;;28.35;17.23;;;;;;;5.83;69.02;95329.53;5031773;28;20199;-73
2023/03/20 02:43:15;;;;;;;33.67;19.15;;;;;;;5.71;69.83;95329.66;5026908;28;20287;-73
2023/03/20 02:45:50;;;;;;;36.58;20.60;;;;;;;5.55;70.37;95328.97;5032150;28;20238;-74
2023/03/20 02:48:27;;;;;;;35.17;19.23;;;;;;;5.59;70.76;95322.22;5032164;28;20199;-73
2023/03/20 02:50:59;;;;;;;28.85;19.70;;;;;;;5.58;70.63;95323.09;5030195;28;20318;-73
2023/03/20 02:53:39;;;;;;;35.80;20.13;;;;;;;5.58;71.08;95315.53;5025698;28;20216;-72
2023/03/20 02:56:17;;;;;;;34.28;19.52;;;;;;;5.60;71.39;95326.41;5032465;28;20303;-73
2023/03/20 02:58:50;;;;;;;33.13;19.92;;;;;;;5.63;71.17;95323.88;5031838;28;20716;-74
2023/03/20 03:01:23;;;;;;;29.98;19.08;;;;;;;5.66;71.15;95323.84;5032216;28;20283;-72
2023/03/20 03:03:54;;;;;;;36.70;19.25;;;;;;;5.62;71.26;95325.56;5030930;28;20266;-74
2023/03/20 03:06:26;;;;;;;38.70;18.13;;;;;;;5.61;71.57;95325.56;5031980;28;20242;-74
2023/03/20 03:09:01;;;;;;;37.22;18.92;;;;;;;5.56;71.55;95324.78;5029129;28;20207;-74
2023/03/20 03:11:28;;;;;;;31.48;17.80;;;;;;;5.46;71.75;95319.81;5031280;28;20234;-73
2023/03/20 03:13:56;;;;;;;36.03;20.73;;;;;;;5.44;71.63;95318.19;5030288;28;20635;-75
2023/03/20 03:16:27;;;;;;;34.15;19.60;;;;;;;5.42;71.80;95313.16;5031661;28;20266;-73
2023/03/20 03:19:02;;;;;;;30.20;18.88;;;;;;;5.38;72.18;95315.72;5031295;28;20200;-71
2023/03/20 03:21:30;;;;;;;35.90;18.42;;;;;;;5.33;71.97;95309.88;5030929;28;20669;-74
2023/03/20 03:23:58;;;;;;;33.38;19.65;;;;;;;5.31;72.13;95322.50;5031378;28;20261;-73
2023/03/20 03:26:28;;;;;;;34.85;19.02;;;;;;;5.32;72.23;95321.66;5030917;28;20223;-73
2023/03/20 03:29:00;;;;;;;36.53;18.63;;;;;;;5.41;71.89;95316.53;5031711;28;20234;-74
2023/03/20 03:31:28;;;;;;;40.25;19.70;;;;;;;5.37;71.88;95314.06;5030880;28;20227;-73
2023/03/20 03:33:57;;;;;;;31.33;17.67;;;;;;;5.41;72.24;95325.78;5031931;28;20200;-74
2023/03/20 03:36:37;;;;;;;30.13;18.38;;;;;;;5.41;71.58;95326.63;5031171;28;20656;-74
2023/03/20 03:39:14;;;;;;;35.15;18.48;;;;;;;5.44;71.75;95325.75;5031898;28;20222;-73
2023/03/20 03:41:45;;;;;;;28.75;16.90;;;;;;;5.38;71.77;95321.59;5039724;28;20577;-75
2023/03/20 03:44:20;;;;;;;44.88;17.88;;;;;;;5.44;71.44;95326.56;5030759;28;20203;-73
2023/03/20 03:46:51;;;;;;;31.25;18.05;;;;;;;5.44;71.51;95321.50;5031639;28;20211;-74
2023/03/20 03:49:23;;;;;;;34.95;18.23;;;;;;;5.44;71.77;95313.94;5030385;28;20231;-71
2023/03/20 03:51:55;;;;;;;25.88;16.38;;;;;;;5.48;71.11;95318.13;5030900;28;20318;-72
2023/03/20 03:54:28;;;;;;;29.38;17.08;;;;;;;5.36;71.67;95312.38;5031135;28;20200;-73
2023/03/20 03:56:56;;;;;;;24.98;14.73;;;;;;;5.34;71.51;95314.91;5030961;28;20234;-74
2023/03/20 03:59:27;;;;;;;25.02;15.13;;;;;;;5.32;71.51;95314.09;5031459;28;20212;-74
2023/03/20 04:01:56;;;;;;;28.65;15.43;;;;;;;5.25;71.69;95309.09;5030654;28;20208;-74
2023/03/20 04:04:26;;;;;;;29.60;15.18;;;;;;;5.21;71.78;95312.50;5031440;28;20278;-73
2023/03/20 04:06:53;;;;;;;29.65;16.02;;;;;;;5.11;71.62;95322.69;5029436;28;20243;-73
2023/03/20 04:09:20;;;;;;;25.75;15.45;;;;;;;5.08;72.15;95320.19;5031493;28;20212;-74
2023/03/20 04:11:51;;;;;;;22.60;15.05;;;;;;;5.05;72.26;95311.81;5030684;28;20717;-73
2023/03/20 04:14:19;;;;;;;25.90;14.18;;;;;;;5.05;71.92;95309.28;5030963;28;20239;-73
2023/03/20 04:16:46;;;;;;;26.63;14.23;;;;;;;5.08;71.97;95307.59;5030166;28;20231;-72
2023/03/20 04:19:13;;;;;;;26.30;15.25;;;;;;;5.07;71.95;95305.06;5030638;28;20269;-74
2023/03/20 04:21:39;;;;;;;20.10;13.80;;;;;;;5.13;71.76;95300.00;5031085;28;20356;-73
2023/03/20 04:24:07;;;;;;;24.25;14.07;;;;;;;5.14;71.88;95296.63;5031013;28;20227;-74
2023/03/20 04:26:33;;;;;;;24.83;14.02;;;;;;;5.20;71.82;95294.03;5030929;28;20307;-73
2023/03/20 04:29:01;;;;;;;27.27;15.88;;;;;;;5.20;71.41;95301.59;5030988;28;20266;-72
2023/03/20 04:31:28;;;;;;;28.90;15.60;;;;;;;5.21;71.22;95298.22;5030289;28;20782;-72
2023/03/20 04:33:55;;;;;;;24.73;15.60;;;;;;;5.28;71.50;95309.09;5030823;28;20295;-73
2023/03/20 04:36:22;;;;;;;22.25;13.95;;;;;;;5.37;71.34;95306.50;5030769;28;20196;-74
2023/03/20 04:38:49;;;;;;;24.00;13.77;;;;;;;5.46;71.48;95307.22;5030724;28;20203;-73
2023/03/20 04:41:16;;;;;;;28.52;15.90;;;;;;;5.55;70.67;95318.06;5030847;28;20257;-72
2023/03/20 04:43:42;;;;;;;24.70;13.88;;;;;;;5.56;70.54;95319.75;5030217;28;20249;-72
2023/03/20 04:46:10;;;;;;;29.52;15.30;;;;;;;5.66;70.08;95323.84;5030912;28;20212;-75
2023/03/20 04:48:37;;;;;;;30.10;14.52;;;;;;;5.76;69.84;95325.41;5030494;28;20278;-74
2023/03/20 04:51:04;;;;;;;25.38;14.70;;;;;;;5.89;69.14;95337.06;5030694;28;20301;-76
2023/03/20 04:53:31;;;;;;;27.02;15.02;;;;;;;5.99;68.49;95328.53;5029615;28;20666;-73
2023/03/20 04:55:58;;;;;;;27.27;13.65;;;;;;;6.13;68.53;95329.22;5030366;28;20638;-75
2023/03/20 04:58:24;;;;;;;26.98;13.27;;;;;;;6.33;68.90;95340.75;5030161;28;20266;-74
2023/03/20 05:00:51;;;;;;;29.90;15.55;;;;;;;6.52;67.58;95334.59;5029993;28;20601;-75
2023/03/20 05:03:19;;;;;;;29.30;15.43;;;;;;;6.86;66.77;95334.97;5029960;28;20238;-74
2023/03/20 05:05:46;;;;;;;28.60;13.82;;;;;;;7.42;64.73;95334.03;5030259;28;20295;-75
2023/03/20 05:08:12;;;;;;;27.67;14.75;;;;;;;7.95;63.17;95331.41;5030557;28;20235;-74
2023/03/20 05:10:39;;;;;;;30.90;16.95;;;;;;;8.20;62.07;95335.13;5029968;28;20262;-75
2023/03/20 05:13:06;;;;;;;27.52;14.60;;;;;;;8.36;62.06;95336.53;5030071;28;20204;-75
2023/03/20 05:15:33;;;;;;;28.95;16.52;;;;;;;8.57;61.33;95334.41;5030330;28;20195;-76
2023/03/20 05:18:00;;;;;;;28.15;15.40;;;;;;;8.87;60.69;95346.41;5030222;28;20203;-74
2023/03/20 05:20:28;;;;;;;34.28;14.48;;;;;;;9.27;59.62;95346.31;5030031;28;20192;-74
2023/03/20 05:22:54;;;;;;;32.00;16.35;;;;;;;9.68;57.84;95344.44;5029224;28;20762;-74
2023/03/20 05:25:21;;;;;;;31.05;16.67;;;;;;;10.03;56.65;95334.22;5030221;28;20716;-74
2023/03/20 05:27:48;;;;;;;30.83;15.00;;;;;;;10.36;55.35;95339.28;5029486;28;20223;-74
2023/03/20 05:30:15;;;;;;;29.13;15.85;;;;;;;10.65;54.51;95338.41;5030259;28;20259;-75
2023/03/20 05:32:42;;;;;;;38.75;20.90;;;;;;;10.89;53.78;95343.59;5029697;28;20196;-74
2023/03/20 05:35:09;;;;;;;61.17;33.60;;;;;;;11.09;53.20;95332.00;5030610;28;20204;-74
2023/03/20 05:37:37;;;;;;;48.67;24.55;;;;;;;11.38;51.98;95339.53;5029742;28;20204;-75
2023/03/20 05:40:06;;;;;;;43.92;19.63;;;;;;;11.97;50.65;95341.81;5028885;28;20235;-73
2023/03/20 05:42:33;;;;;;;42.05;19.55;;;;;;;12.94;49.18;95348.47;5029926;28;20261;-74
2023/03/20 05:44:59;;;;;;;39.58;19.10;;;;;;;13.97;45.29;95340.09;5029988;28;20260;-74
2023/03/20 05:47:26;;;;;;;33.30;19.75;;;;;;;14.97;43.94;95330.53;5029523;28;20208;-73
2023/03/20 05:49:53;;;;;;;43.95;23.20;;;;;;;15.95;40.64;95325.81;5029721;28;20717;-75
2023/03/20 05:52:20;;;;;;;45.05;22.75;;;;;;;16.59;39.61;95327.59;5029864;28;20287;-74
2023/03/20 05:54:48;;;;;;;38.90;22.13;;;;;;;17.18;38.45;95331.31;5029795;28;20282;-75
2023/03/20 05:57:16;;;;;;;58.55;23.92;;;;;;;17.59;36.96;95331.53;5029633;28;20658;-73
2023/03/20 05:59:42;;;;;;;38.22;21.27;;;;;;;17.75;36.97;95339.25;5030081;28;20279;-74
2023/03/20 06:02:10;;;;;;;39.35;21.45;;;;;;;17.54;36.61;95333.56;5029554;28;20249;-75
2023/03/20 06:04:36;;;;;;;41.83;22.85;;;;;;;17.32;37.49;95339.09;5029965;28;20200;-73
2023/03/20 06:07:03;;;;;;;41.05;23.67;;;;;;;17.21;38.06;95336.28;5028940;28;20230;-74
2023/03/20 06:09:30;;;;;;;47.35;26.80;;;;;;;17.28;37.93;95337.59;5030229;28;20242;-74
2023/03/20 06:11:58;;;;;;;34.95;23.85;;;;;;;17.15;37.04;95334.03;5029177;28;20323;-74
2023/03/20 06:14:25;;;;;;;37.33;21.73;;;;;;;17.06;38.00;95339.69;5030233;28;20208;-74
2023/03/20 06:16:52;;;;;;;37.45;21.27;;;;;;;16.99;37.42;95341.75;5029052;28;20294;-73
2023/03/20 06:19:20;;;;;;;35.28;18.17;;;;;;;16.98;37.67;95333.22;5029740;28;20199;-74
2023/03/20 06:21:47;;;;;;;35.38;18.05;;;;;;;16.85;37.52;95329.66;5029956;28;20200;-74
2023/03/20 06:24:14;;;;;;;32.55;17.80;;;;;;;17.02;38.31;95333.06;5029022;28;20211;-75
2023/03/20 06:26:41;;;;;;;29.30;17.20;;;;;;;17.03;36.97;95332.97;5029375;28;20732;-74
2023/03/20 06:29:09;;;;;;;28.42;19.08;;;;;;;17.15;37.64;95336.59;5029328;28;20277;-74
2023/03/20 06:31:36;;;;;;;37.47;20.88;;;;;;;17.62;36.66;95336.50;5028498;28;20219;-74
2023/03/20 06:34:03;;;;;;;24.70;16.15;;;;;;;17.97;35.99;95337.09;5029650;28;20244;-74
2023/03/20 06:36:30;;;;;;;24.63;16.02;;;;;;;18.02;35.86;95329.97;5016481;28;20203;-75
2023/03/20 06:38:57;;;;;;;27.52;16.00;;;;;;;18.08;35.76;95339.88;5029926;28;20207;-75
2023/03/20 06:41:24;;;;;;;30.52;14.27;;;;;;;18.05;35.52;95345.22;5029661;28;20211;-75
2023/03/20 06:43:51;;;;;;;22.73;14.40;;;;;;;18.42;34.54;95332.72;5029281;28;20265;-73
2023/03/20 06:46:19;;;;;;;20.77;15.20;;;;;;;19.07;33.63;95330.47;5029583;28;20211;-75
2023/03/20 06:48:46;;;;;;;18.95;13.63;;;;;;;19.51;32.51;95325.94;5031377;28;20206;-74
2023/03/20 06:51:12;;;;;;;21.10;13.95;;;;;;;20.36;31.25;95322.84;5033390;28;20224;-74
2023/03/20 06:53:40;;;;;;;20.83;14.95;;;;;;;21.18;30.21;95326.63;5032766;28;20231;-75
2023/03/20 06:56:08;;;;;;;22.95;15.82;;;;;;;21.91;29.62;95318.75;5031673;28;20600;-75
2023/03/20 06:58:35;;;;;;;28.15;16.15;;;;;;;22.98;28.26;95319.22;5032116;28;20623;-75
2023/03/20 07:01:02;;;;;;;28.05;18.08;;;;;;;23.12;27.52;95322.47;5040784;28;20199;-76
2023/03/20 07:03:30;;;;;;;25.10;17.75;;;;;;;22.91;27.78;95306.84;5035902;28;20299;-74
2023/03/20 07:05:56;;;;;;;29.52;17.42;;;;;;;22.11;28.40;95317.28;5032623;28;20204;-75
2023/03/20 07:08:23;;;;;;;29.02;17.40;;;;;;;21.53;30.00;95326.69;5032338;28;20212;-74
2023/03/20 07:10:50;;;;;;;22.63;16.38;;;;;;;21.51;30.72;95325.19;5031967;28;20621;-74
2023/03/20 07:13:17;;;;;;;30.90;17.50;;;;;;;21.87;29.83;95308.72;5032499;28;20207;-74
2023/03/20 07:15:43;;;;;;;43.85;18.98;;;;;;;22.05;28.63;95297.84;5032957;28;20681;-74
2023/03/20 07:18:10;;;;;;;29.67;16.38;;;;;;;22.21;28.46;95294.94;5030640;28;20211;-75
2023/03/20 07:20:38;;;;;;;27.58;16.20;;;;;;;22.12;29.04;95310.34;5022260;28;20207;-75
2023/03/20 07:23:05;;;;;;;27.08;17.13;;;;;;;22.18;29.32;95308.13;5031850;28;20665;-75
2023/03/20 07:25:33;;;;;;;22.17;15.15;;;;;;;23.13;28.40;95313.75;5032871;28;20208;-75
2023/03/20 07:27:59;;;;;;;32.22;15.90;;;;;;;24.14;26.69;95307.22;5034207;28;20246;-76
2023/03/20 07:30:26;;;;;;;27.92;16.58;;;;;;;24.55;26.47;95305.53;5041860;28;20207;-76
2023/03/20 07:32:53;;;;;;;20.67;15.07;;;;;;;25.33;25.15;95307.44;5030893;28;20227;-74
2023/03/20 07:35:20;;;;;;;24.75;15.52;;;;;;;25.77;24.93;95306.94;5032328;28;20203;-75
2023/03/20 07:37:48;;;;;;;27.88;16.02;;;;;;;26.04;24.21;95298.41;5031529;28;20199;-75
2023/03/20 07:40:15;;;;;;;29.67;17.27;;;;;;;25.82;24.11;95295.28;5031475;28;20670;-74
2023/03/20 07:42:41;;;;;;;28.35;15.90;;;;;;;26.51;23.44;95306.28;5027572;28;20200;-77
2023/03/20 07:45:09;;;;;;;28.88;16.45;;;;;;;27.47;22.72;95299.75;5014643;28;20770;-76
2023/03/20 07:47:35;;;;;;;20.92;13.40;;;;;;;28.40;22.05;95301.88;5017167;28;20302;-76
2023/03/20 07:50:02;;;;;;;22.08;13.38;;;;;;;29.74;20.86;95306.28;5015110;28;20290;-76
2023/03/20 07:52:29;;;;;;;15.20;11.77;;;;;;;30.81;19.33;95299.16;5015852;28;20227;-74
2023/03/20 07:54:57;;;;;;;18.00;10.95;;;;;;;30.99;19.08;95302.34;5013780;28;20257;-77
2023/03/20 07:57:24;;;;;;;17.45;11.90;;;;;;;31.73;18.81;95296.56;5016637;28;20803;-76
2023/03/20 07:59:50;;;;;;;17.88;12.93;;;;;;;31.82;18.54;95293.88;5015048;28;20320;-75
2023/03/20 08:02:18;;;;;;;19.77;13.85;;;;;;;31.92;18.08;95297.09;5017254;28;20576;-75
2023/03/20 08:04:45;;;;;;;18.48;13.40;;;;;;;31.32;18.92;95293.38;5014628;28;20681;-76
2023/03/20 08:07:12;;;;;;;21.35;13.70;;;;;;;32.19;18.29;95295.69;5016686;28;20219;-78
2023/03/20 08:09:39;;;;;;;22.60;14.23;;;;;;;33.17;17.78;95298.13;5015726;28;20298;-76
2023/03/20 08:12:07;;;;;;;23.63;14.75;;;;;;;34.31;17.13;95295.50;5015202;28;20231;-74
2023/03/20 08:14:37;;;;;;;20.92;14.32;;;;;;;34.41;16.31;95285.38;5015033;28;20273;-77
2023/03/20 08:17:04;;;;;;;24.58;14.65;;;;;;;34.88;16.03;95286.53;5012628;28;20319;-76
2023/03/20 08:19:30;;;;;;;18.17;12.38;;;;;;;34.37;16.65;95281.53;5013100;28;20697;-74
2023/03/20 08:21:57;;;;;;;22.33;13.07;;;;;;;34.34;16.08;95286.38;5014213;28;20322;-73
2023/03/20 08:24:24;;;;;;;18.92;11.98;;;;;;;34.27;15.99;95281.00;5013995;28;20302;-75
2023/03/20 08:26:51;;;;;;;13.85;10.30;;;;;;;34.05;16.30;95289.97;5013827;28;20320;-75
2023/03/20 08:29:19;;;;;;;18.35;10.10;;;;;;;34.45;16.01;95284.00;5015197;28;20203;-73
2023/03/20 08:31:46;;;;;;;21.08;11.07;;;;;;;34.04;16.60;95301.53;5014577;28;20239;-76
2023/03/20 08:34:13;;;;;;;24.35;12.38;;;;;;;34.10;16.42;95287.59;5013418;28;20651;-73
2023/03/20 08:36:39;;;;;;;18.00;11.93;;;;;;;34.90;16.12;95288.94;5014681;28;20649;-74
2023/03/20 08:39:07;;;;;;;16.30;11.23;;;;;;;35.06;15.71;95294.72;5015372;28;20225;-73
2023/03/20 08:41:33;;;;;;;15.68;11.07;;;;;;;33.44;16.46;95292.19;5015276;28;20624;-78
2023/03/20 08:44:00;;;;;;;23.60;11.82;;;;;;;33.40;16.90;95288.31;5013506;28;20264;-72
2023/03/20 08:46:28;;;;;;;13.30;11.13;;;;;;;34.89;15.21;95287.34;5014981;28;20299;-71
2023/03/20 08:48:55;;;;;;;17.33;12.40;;;;;;;34.30;15.85;95288.56;5015858;28;20211;-77
2023/03/20 08:51:22;;;;;;;20.70;9.90;;;;;;;34.03;15.96;95291.97;5015593;28;20227;-71
2023/03/20 08:53:48;;;;;;;13.20;9.73;;;;;;;33.34;15.94;95291.69;5015787;28;20285;-79
2023/03/20 08:56:15;;;;;;;12.18;9.30;;;;;;;31.79;17.32;95284.53;5014906;28;20219;-75
2023/03/20 08:58:42;;;;;;;15.82;10.43;;;;;;;30.92;18.21;95283.88;5015370;28;20203;-76
2023/03/20 09:01:10;;;;;;;17.48;12.05;;;;;;;29.99;18.74;95287.97;5014782;28;20237;-76
2023/03/20 09:03:38;;;;;;;17.27;10.18;;;;;;;26.59;21.79;95288.16;5015087;28;20205;-75
2023/03/20 09:06:06;;;;;;;14.68;11.60;;;;;;;26.59;22.07;95287.31;5015037;28;21032;-74
2023/03/20 09:08:33;;;;;;;22.98;12.65;;;;;;;27.17;21.73;95285.28;5014069;28;20686;-77
2023/03/20 09:10:59;;;;;;;18.30;11.50;;;;;;;26.85;22.03;95277.88;5015483;28;20231;-75
2023/03/20 09:13:26;;;;;;;20.25;11.65;;;;;;;26.48;22.30;95269.28;5014573;28;20354;-76
2023/03/20 09:15:53;;;;;;;35.33;14.43;;;;;;;25.78;23.17;95271.31;5015419;28;20207;-80
2023/03/20 09:18:20;;;;;;;18.23;13.23;;;;;;;25.50;23.52;95270.34;5013480;28;20265;-78
2023/03/20 09:20:49;;;;;;;17.08;13.40;;;;;;;25.06;24.01;95275.09;5013965;28;20207;-76
2023/03/20 09:23:15;;;;;;;19.48;13.02;;;;;;;24.34;25.07;95272.66;5014062;28;21167;-80
2023/03/20 09:25:42;;;;;;;21.42;12.68;;;;;;;23.10;26.71;95269.94;5015110;28;20273;-76
2023/03/20 09:28:09;;;;;;;20.08;13.63;;;;;;;22.42;27.74;95265.78;5015084;28;20223;-80
2023/03/20 09:30:36;;;;;;;18.20;14.30;;;;;;;22.21;28.26;95252.72;5013956;28;20314;-77
2023/03/20 09:33:02;;;;;;;25.85;15.23;;;;;;;22.14;28.35;95254.09;5014581;28;20667;-76
2023/03/20 09:35:29;;;;;;;17.98;13.65;;;;;;;21.99;28.49;95253.47;5014388;28;20630;-77
2023/03/20 09:37:57;;;;;;;21.55;14.13;;;;;;;21.65;28.90;95253.41;5014061;28;20206;-78
2023/03/20 09:40:28;;;;;;;20.20;15.57;;;;;;;20.98;30.47;95247.94;5015170;28;20322;-75
2023/03/20 09:43:04;;;;;;;21.48;15.38;;;;;;;20.22;31.00;95240.38;5015039;28;20287;-76
2023/03/20 09:45:44;;;;;;;24.30;15.73;;;;;;;19.35;32.47;95247.91;5014439;28;20199;-76
2023/03/20 09:48:19;;;;;;;20.42;14.57;;;;;;;18.81;33.63;95240.22;5013932;28;21986;-77
2023/03/20 09:50:54;;;;;;;24.38;15.32;;;;;;;18.97;34.24;95233.19;5014620;28;20287;-76
2023/03/20 09:53:29;;;;;;;22.73;14.73;;;;;;;19.15;33.64;95226.03;5014814;28;20725;-77
2023/03/20 09:55:57;;;;;;;17.70;14.30;;;;;;;19.25;33.27;95216.78;5013916;28;20198;-82
2023/03/20 09:58:27;;;;;;;25.48;15.13;;;;;;;19.39;33.33;95218.44;5014011;28;20297;-76
2023/03/20 10:00:58;;;;;;;22.23;13.80;;;;;;;19.49;32.39;95204.03;5013665;28;20208;-79
2023/03/20 10:03:28;;;;;;;19.40;12.93;;;;;;;19.45;32.93;95199.19;5014570;28;20215;-75
2023/03/20 10:05:59;;;;;;;24.13;13.90;;;;;;;19.65;32.98;95199.53;5013791;28;20357;-77
2023/03/20 10:08:30;;;;;;;14.68;13.10;;;;;;;19.96;33.40;95194.88;5014286;28;20299;-78
2023/03/20 10:11:06;;;;;;;30.80;15.23;;;;;;;20.32;32.92;95189.75;5013507;28;20314;-76
2023/03/20 10:13:54;;;;;;;20.35;14.50;;;;;;;20.64;32.12;95181.53;5014316;28;20223;-78
2023/03/20 10:16:33;;;;;;;22.70;13.90;;;;;;;20.56;31.79;95182.06;5013419;28;20865;-78
2023/03/20 10:19:07;;;;;;;22.55;15.50;;;;;;;20.27;31.43;95178.94;5013984;28;21200;-77
2023/03/20 10:21:42;;;;;;;18.52;13.23;;;;;;;20.29;32.02;95174.47;5014279;28;20297;-76
2023/03/20 10:24:18;;;;;;;25.98;15.30;;;;;;;20.37;31.43;95179.97;5017550;28;20199;-80
2023/03/20 10:26:50;;;;;;;20.08;16.10;;;;;;;20.22;31.24;95177.63;5017268;28;20227;-77
2023/03/20 10:29:26;;;;;;;23.35;14.25;;;;;;;19.96;32.04;95171.66;5018109;28;20200;-77
2023/03/20 10:32:02;;;;;;;23.65;14.82;;;;;;;19.37;32.40;95168.75;5018089;28;20227;-79
2023/03/20 10:34:41;;;;;;;19.92;14.48;;;;;;;19.06;33.17;95166.53;5018596;28;20632;-75
2023/03/20 10:37:32;;;;;;;22.27;12.90;;;;;;;19.28;33.31;95164.22;5019217;28;20211;-76
2023/03/20 10:40:17;;;;;;;17.35;13.23;;;;;;;19.42;32.48;95156.41;5017297;28;20293;-78
2023/03/20 10:42:47;;;;;;;19.05;12.70;;;;;;;19.66;33.28;95159.94;5017666;28;20204;-76
2023/03/20 10:45:29;;;;;;;24.42;13.05;;;;;;;19.54;32.35;95153.03;5017814;28;20212;-76
2023/03/20 10:47:59;;;;;;;14.85;12.07;;;;;;;19.40;32.40;95145.34;5017532;28;20598;-78
2023/03/20 10:50:32;;;;;;;20.08;13.43;;;;;;;19.34;32.04;95138.03;5016682;28;20215;-76
2023/03/20 10:53:01;;;;;;;25.27;12.20;;;;;;;19.15;32.55;95143.59;5017714;28;20238;-76
2023/03/20 10:55:34;;;;;;;21.85;14.60;;;;;;;19.02;32.96;95130.69;5017293;28;20355;-75
2023/03/20 10:58:10;;;;;;;16.27;11.63;;;;;;;19.18;33.04;95129.69;5017792;28;20285;-80
2023/03/20 11:00:36;;;;;;;20.10;12.57;;;;;;;19.41;32.65;95128.97;5017329;28;20273;-76
2023/03/20 11:03:04;;;;;;;20.45;12.43;;;;;;;19.79;32.36;95128.16;5017684;28;20200;-77
2023/03/20 11:05:34;;;;;;;13.95;11.88;;;;;;;20.16;31.64;95116.94;5016719;28;20215;-78
2023/03/20 11:08:04;;;;;;;17.83;12.57;;;;;;;20.41;31.59;95120.38;5016514;28;21055;-78
2023/03/20 11:10:34;;;;;;;18.75;12.07;;;;;;;20.58;30.98;95117.41;5016818;28;20241;-76
2023/03/20 11:13:15;;;;;;;18.38;11.77;;;;;;;20.61;30.47;95104.28;5015480;28;20857;-76
2023/03/20 11:15:42;;;;;;;12.55;11.02;;;;;;;20.58;30.92;95102.75;5016909;28;20210;-76
2023/03/20 11:18:12;;;;;;;13.13;10.88;;;;;;;20.65;30.60;95092.81;5016440;28;21014;-77
2023/03/20 11:20:45;;;;;;;24.50;13.45;;;;;;;20.57;30.25;95095.13;5017051;28;20200;-77
2023/03/20 11:23:16;;;;;;;16.65;10.60;;;;;;;20.55;30.20;95081.50;5016805;28;20208;-78
2023/03/20 11:25:50;;;;;;;23.20;11.70;;;;;;;20.28;30.45;95087.69;5017436;28;20262;-75
2023/03/20 11:28:27;;;;;;;22.10;12.18;;;;;;;20.18;30.94;95089.25;5016484;28;20211;-76
2023/03/20 11:31:00;;;;;;;20.40;11.07;;;;;;;20.38;30.60;95082.72;5016215;28;20212;-76
2023/03/20 11:33:28;;;;;;;16.17;10.40;;;;;;;20.37;29.10;95076.72;5016096;28;20228;-77